PWSweather.com
Personal Weather Stations
Station Observations
KVTSWANT6
Maquam ShoreCamp Maquam, Swanton, VT 05488

Maquam ShoreCamp MaquamSwanton, VT 05488

Lat: 44.90250015, Lon: -73.16666412

Elevation: 109

Station Type: W-1090

Latest ConditionsUpdated 4:30:01 AM EDT Tuesday, Oct 21, 2014
Currently Today's Max Today's Min Today's Average
Temperature 45.7°F7.6°C 45.9°F7.7°C 45.1°F7.3°C 45.6°F7.6°C
Dew Point 42.6°F5.9°C 42.7°F5.9°C 41.9°F5.5°C 42.3°F5.7°C
Winds 1.6 mph ESE2.6 kmh ESE 2.2 mph SE3.5 kmh SE - 1.2 mph 1.9 kmh
Wind Gusts 3.1 mph5.0 kmh 4.5 mph7.2 kmh - -
Humidity 89% 90% 87% 88%
Pressure 29.69 in1005.4 mb 29.69 in1005.4 mb 29.67 in1004.7 mb -
Hour Temp Dew Point Humidity Winds Wind Gusts Pressure Precip Precip Rate Daily Precip Total
04:30 AM 45.7°F7.6°C 42.6°F5.9°C 89% 1.6 mph ESE2.6 kmh ESE 3.1 mph5.0 kmh 29.69 in1005.4 mb 0.00 in0.0 mm 0.00 in/hr0.0 mm/hr 0.00 in0.0 mm
04:20 AM 45.7°F7.6°C 42.6°F5.9°C 89% 0.7 mph ESE1.1 kmh ESE 3.1 mph5.0 kmh 29.68 in1005.1 mb 0.00 in0.0 mm 0.00 in/hr0.0 mm/hr 0.00 in0.0 mm
04:10 AM 45.7°F7.6°C 42.6°F5.9°C 89% 0.7 mph SE1.1 kmh SE 3.1 mph5.0 kmh 29.68 in1005.1 mb 0.00 in0.0 mm 0.00 in/hr0.0 mm/hr 0.00 in0.0 mm
04:00 AM 45.7°F7.6°C 42.3°F5.7°C 88% 1.6 mph SE2.6 kmh SE 3.1 mph5.0 kmh 29.68 in1005.1 mb 0.00 in0.0 mm 0.00 in/hr0.0 mm/hr 0.00 in0.0 mm
03:50 AM 45.7°F7.6°C 42.0°F5.6°C 87% 1.6 mph ESE2.6 kmh ESE 3.8 mph6.1 kmh 29.68 in1005.1 mb 0.00 in0.0 mm 0.00 in/hr0.0 mm/hr 0.00 in0.0 mm
03:40 AM 45.7°F7.6°C 42.0°F5.6°C 87% 2.2 mph ESE3.5 kmh ESE 3.1 mph5.0 kmh 29.68 in1005.1 mb 0.00 in0.0 mm 0.00 in/hr0.0 mm/hr 0.00 in0.0 mm
03:30 AM 45.7°F7.6°C 42.3°F5.7°C 88% 0.7 mph E1.1 kmh E 3.1 mph5.0 kmh 29.68 in1005.1 mb 0.00 in0.0 mm 0.00 in/hr0.0 mm/hr 0.00 in0.0 mm
03:20 AM 45.7°F7.6°C 42.3°F5.7°C 88% 1.6 mph ESE2.6 kmh ESE 3.1 mph5.0 kmh 29.68 in1005.1 mb 0.00 in0.0 mm 0.00 in/hr0.0 mm/hr 0.00 in0.0 mm
03:10 AM 45.7°F7.6°C 42.3°F5.7°C 88% 1.6 mph ESE2.6 kmh ESE 3.1 mph5.0 kmh 29.67 in1004.7 mb 0.00 in0.0 mm 0.00 in/hr0.0 mm/hr 0.00 in0.0 mm
03:00 AM 45.7°F7.6°C 42.3°F5.7°C 88% Calm Calm 2.2 mph3.5 kmh 29.67 in1004.7 mb 0.00 in0.0 mm 0.00 in/hr0.0 mm/hr 0.00 in0.0 mm
02:50 AM 45.7°F7.6°C 42.3°F5.7°C 88% 0.7 mph ESE1.1 kmh ESE 3.1 mph5.0 kmh 29.68 in1005.1 mb 0.00 in0.0 mm 0.00 in/hr0.0 mm/hr 0.00 in0.0 mm
02:40 AM 45.7°F7.6°C 42.0°F5.6°C 87% 0.7 mph E1.1 kmh E 3.1 mph5.0 kmh 29.67 in1004.7 mb 0.00 in0.0 mm 0.00 in/hr0.0 mm/hr 0.00 in0.0 mm
02:30 AM 45.7°F7.6°C 42.0°F5.6°C 87% 1.6 mph E2.6 kmh E 3.1 mph5.0 kmh 29.67 in1004.7 mb 0.00 in0.0 mm 0.00 in/hr0.0 mm/hr 0.00 in0.0 mm
02:20 AM 45.9°F7.7°C 42.2°F5.7°C 87% 0.7 mph E1.1 kmh E 2.2 mph3.5 kmh 29.67 in1004.7 mb 0.00 in0.0 mm 0.00 in/hr0.0 mm/hr 0.00 in0.0 mm
02:10 AM 45.9°F7.7°C 42.2°F5.7°C 87% 0.7 mph E1.1 kmh E 2.2 mph3.5 kmh 29.68 in1005.1 mb 0.00 in0.0 mm 0.00 in/hr0.0 mm/hr 0.00 in0.0 mm
02:00 AM 45.9°F7.7°C 42.2°F5.7°C 87% 0.7 mph SE1.1 kmh SE 2.2 mph3.5 kmh 29.68 in1005.1 mb 0.00 in0.0 mm 0.00 in/hr0.0 mm/hr 0.00 in0.0 mm
01:50 AM 45.7°F7.6°C 42.3°F5.7°C 88% 0.7 mph SE1.1 kmh SE 3.1 mph5.0 kmh 29.68 in1005.1 mb 0.00 in0.0 mm 0.00 in/hr0.0 mm/hr 0.00 in0.0 mm
01:40 AM 45.5°F7.5°C 42.5°F5.8°C 89% 0.7 mph ESE1.1 kmh ESE 3.1 mph5.0 kmh 29.68 in1005.1 mb 0.00 in0.0 mm 0.00 in/hr0.0 mm/hr 0.00 in0.0 mm
01:30 AM 45.5°F7.5°C 42.7°F5.9°C 90% 1.6 mph ESE2.6 kmh ESE 3.1 mph5.0 kmh 29.68 in1005.1 mb 0.00 in0.0 mm 0.00 in/hr0.0 mm/hr 0.00 in0.0 mm
01:20 AM 45.5°F7.5°C 42.7°F5.9°C 90% 1.6 mph SE2.6 kmh SE 3.1 mph5.0 kmh 29.68 in1005.1 mb 0.00 in0.0 mm 0.00 in/hr0.0 mm/hr 0.00 in0.0 mm
01:10 AM 45.7°F7.6°C 42.3°F5.7°C 88% 1.6 mph SE2.6 kmh SE 3.8 mph6.1 kmh 29.68 in1005.1 mb 0.00 in0.0 mm 0.00 in/hr0.0 mm/hr 0.00 in0.0 mm
01:00 AM 45.7°F7.6°C 42.3°F5.7°C 88% 1.6 mph SE2.6 kmh SE 3.8 mph6.1 kmh 29.68 in1005.1 mb 0.00 in0.0 mm 0.00 in/hr0.0 mm/hr 0.00 in0.0 mm
12:50 AM 45.3°F7.4°C 42.0°F5.6°C 88% 0.7 mph E1.1 kmh E 3.1 mph5.0 kmh 29.68 in1005.1 mb 0.00 in0.0 mm 0.00 in/hr0.0 mm/hr 0.00 in0.0 mm
12:40 AM 45.1°F7.3°C 42.4°F5.8°C 90% 1.6 mph SE2.6 kmh SE 3.8 mph6.1 kmh 29.68 in1005.1 mb 0.00 in0.0 mm 0.00 in/hr0.0 mm/hr 0.00 in0.0 mm
12:30 AM 45.1°F7.3°C 42.4°F5.8°C 90% 1.6 mph SE2.6 kmh SE 3.8 mph6.1 kmh 29.68 in1005.1 mb 0.00 in0.0 mm 0.00 in/hr0.0 mm/hr 0.00 in0.0 mm
12:20 AM 45.3°F7.4°C 42.0°F5.6°C 88% 2.2 mph ESE3.5 kmh ESE 3.1 mph5.0 kmh 29.68 in1005.1 mb 0.00 in0.0 mm 0.00 in/hr0.0 mm/hr 0.00 in0.0 mm
12:10 AM 45.5°F7.5°C 41.9°F5.5°C 87% 0.7 mph ESE1.1 kmh ESE 3.8 mph6.1 kmh 29.68 in1005.1 mb 0.00 in0.0 mm 0.00 in/hr0.0 mm/hr 0.00 in0.0 mm
12:00 AM 45.1°F7.3°C 42.1°F5.6°C 89% 2.2 mph SE3.5 kmh SE 4.5 mph7.2 kmh 29.68 in1005.1 mb 0.00 in0.0 mm 0.00 in/hr0.0 mm/hr 0.00 in0.0 mm